sensor_id;sensor_type;location;lat;lon;timestamp;pressure;altitude;pressure_sealevel;temperature;humidity
7966;BME280;4028;43.272;26.932;2024-03-25T00:01:40;97692.41;;;10.86;100.00
7966;BME280;4028;43.272;26.932;2024-03-25T00:04:06;97689.16;;;10.61;100.00
7966;BME280;4028;43.272;26.932;2024-03-25T00:06:31;97687.88;;;10.57;100.00
7966;BME280;4028;43.272;26.932;2024-03-25T00:09:04;97691.66;;;10.39;100.00
7966;BME280;4028;43.272;26.932;2024-03-25T00:11:33;97692.44;;;10.17;100.00
7966;BME280;4028;43.272;26.932;2024-03-25T00:13:58;97703.44;;;10.06;100.00
7966;BME280;4028;43.272;26.932;2024-03-25T00:16:24;97695.50;;;10.06;100.00
7966;BME280;4028;43.272;26.932;2024-03-25T00:18:50;97685.31;;;10.26;100.00
7966;BME280;4028;43.272;26.932;2024-03-25T00:21:16;97689.38;;;10.36;100.00
7966;BME280;4028;43.272;26.932;2024-03-25T00:23:41;97687.78;;;10.50;100.00
7966;BME280;4028;43.272;26.932;2024-03-25T00:26:07;97686.53;;;10.15;100.00
7966;BME280;4028;43.272;26.932;2024-03-25T00:28:32;97689.72;;;10.33;100.00
7966;BME280;4028;43.272;26.932;2024-03-25T00:30:58;97687.63;;;10.29;100.00
7966;BME280;4028;43.272;26.932;2024-03-25T00:33:23;97689.63;;;9.96;100.00
7966;BME280;4028;43.272;26.932;2024-03-25T00:35:49;97682.25;;;10.14;100.00
7966;BME280;4028;43.272;26.932;2024-03-25T00:38:15;97664.47;;;10.23;100.00
7966;BME280;4028;43.272;26.932;2024-03-25T00:40:40;97673.13;;;10.16;100.00
7966;BME280;4028;43.272;26.932;2024-03-25T00:43:06;97676.19;;;10.28;100.00
7966;BME280;4028;43.272;26.932;2024-03-25T00:45:32;97676.16;;;10.36;100.00
7966;BME280;4028;43.272;26.932;2024-03-25T00:47:57;97679.22;;;10.25;100.00
7966;BME280;4028;43.272;26.932;2024-03-25T00:50:24;97691.91;;;10.22;100.00
7966;BME280;4028;43.272;26.932;2024-03-25T00:52:50;97680.53;;;10.21;100.00
7966;BME280;4028;43.272;26.932;2024-03-25T00:55:16;97677.41;;;10.26;100.00
7966;BME280;4028;43.272;26.932;2024-03-25T00:57:41;97668.31;;;10.20;100.00
7966;BME280;4028;43.272;26.932;2024-03-25T01:00:07;97669.38;;;10.11;100.00
7966;BME280;4028;43.272;26.932;2024-03-25T01:02:33;97657.88;;;10.04;100.00
7966;BME280;4028;43.272;26.932;2024-03-25T01:04:59;97652.66;;;10.19;100.00
7966;BME280;4028;43.272;26.932;2024-03-25T01:07:25;97657.47;;;10.15;100.00
7966;BME280;4028;43.272;26.932;2024-03-25T01:09:51;97649.16;;;10.18;100.00
7966;BME280;4028;43.272;26.932;2024-03-25T01:12:16;97645.88;;;10.16;100.00
7966;BME280;4028;43.272;26.932;2024-03-25T01:14:42;97637.97;;;9.93;100.00
7966;BME280;4028;43.272;26.932;2024-03-25T01:17:10;97650.63;;;9.75;100.00
7966;BME280;4028;43.272;26.932;2024-03-25T01:19:35;97639.25;;;9.74;100.00
7966;BME280;4028;43.272;26.932;2024-03-25T01:22:01;97629.38;;;9.91;100.00
7966;BME280;4028;43.272;26.932;2024-03-25T01:24:26;97620.09;;;9.49;100.00
7966;BME280;4028;43.272;26.932;2024-03-25T01:26:51;97628.91;;;9.64;100.00
7966;BME280;4028;43.272;26.932;2024-03-25T01:29:17;97625.44;;;9.64;100.00
7966;BME280;4028;43.272;26.932;2024-03-25T01:31:44;97628.09;;;9.64;100.00
7966;BME280;4028;43.272;26.932;2024-03-25T01:34:09;97633.97;;;9.74;100.00
7966;BME280;4028;43.272;26.932;2024-03-25T01:36:36;97625.28;;;9.66;100.00
7966;BME280;4028;43.272;26.932;2024-03-25T01:39:01;97624.84;;;9.54;100.00
7966;BME280;4028;43.272;26.932;2024-03-25T01:41:27;97640.00;;;9.60;100.00
7966;BME280;4028;43.272;26.932;2024-03-25T01:43:53;97646.75;;;9.62;100.00
7966;BME280;4028;43.272;26.932;2024-03-25T01:46:20;97651.25;;;9.54;100.00
7966;BME280;4028;43.272;26.932;2024-03-25T01:48:47;97643.81;;;9.57;100.00
7966;BME280;4028;43.272;26.932;2024-03-25T01:51:15;97611.72;;;9.69;100.00
7966;BME280;4028;43.272;26.932;2024-03-25T01:53:42;97597.00;;;9.74;100.00
7966;BME280;4028;43.272;26.932;2024-03-25T01:56:08;97583.03;;;9.88;100.00
7966;BME280;4028;43.272;26.932;2024-03-25T01:58:35;97595.00;;;9.76;100.00
7966;BME280;4028;43.272;26.932;2024-03-25T02:01:02;97618.75;;;9.76;100.00
7966;BME280;4028;43.272;26.932;2024-03-25T02:03:29;97611.19;;;9.73;100.00
7966;BME280;4028;43.272;26.932;2024-03-25T02:06:02;97633.69;;;9.69;100.00
7966;BME280;4028;43.272;26.932;2024-03-25T02:08:29;97637.47;;;9.67;100.00
7966;BME280;4028;43.272;26.932;2024-03-25T02:10:56;97633.56;;;9.62;100.00
7966;BME280;4028;43.272;26.932;2024-03-25T02:13:23;97615.53;;;9.66;100.00
7966;BME280;4028;43.272;26.932;2024-03-25T02:15:49;97632.25;;;9.81;100.00
7966;BME280;4028;43.272;26.932;2024-03-25T02:18:17;97639.25;;;9.74;100.00
7966;BME280;4028;43.272;26.932;2024-03-25T02:20:43;97631.84;;;9.70;100.00
7966;BME280;4028;43.272;26.932;2024-03-25T02:23:08;97626.44;;;9.86;100.00
7966;BME280;4028;43.272;26.932;2024-03-25T02:25:38;97618.78;;;9.99;100.00
7966;BME280;4028;43.272;26.932;2024-03-25T02:28:03;97619.63;;;9.92;100.00
7966;BME280;4028;43.272;26.932;2024-03-25T02:30:29;97627.31;;;10.01;100.00
7966;BME280;4028;43.272;26.932;2024-03-25T02:32:54;97633.56;;;10.08;100.00
7966;BME280;4028;43.272;26.932;2024-03-25T02:35:21;97631.03;;;10.15;100.00
7966;BME280;4028;43.272;26.932;2024-03-25T02:37:50;97639.78;;;10.15;100.00
7966;BME280;4028;43.272;26.932;2024-03-25T02:40:15;97639.97;;;9.91;100.00
7966;BME280;4028;43.272;26.932;2024-03-25T02:42:41;97645.41;;;9.67;100.00
7966;BME280;4028;43.272;26.932;2024-03-25T02:45:07;97642.22;;;9.71;100.00
7966;BME280;4028;43.272;26.932;2024-03-25T02:47:33;97639.84;;;9.84;100.00
7966;BME280;4028;43.272;26.932;2024-03-25T02:49:58;97652.28;;;9.76;100.00
7966;BME280;4028;43.272;26.932;2024-03-25T02:52:24;97642.72;;;9.44;100.00
7966;BME280;4028;43.272;26.932;2024-03-25T02:54:49;97658.19;;;9.55;100.00
7966;BME280;4028;43.272;26.932;2024-03-25T02:57:15;97648.56;;;9.62;100.00
7966;BME280;4028;43.272;26.932;2024-03-25T02:59:40;97651.19;;;9.62;100.00
7966;BME280;4028;43.272;26.932;2024-03-25T03:02:06;97645.78;;;9.55;100.00
7966;BME280;4028;43.272;26.932;2024-03-25T03:04:31;97645.88;;;9.39;100.00
7966;BME280;4028;43.272;26.932;2024-03-25T03:06:57;97655.97;;;9.35;100.00
7966;BME280;4028;43.272;26.932;2024-03-25T03:09:23;97655.75;;;9.45;100.00
7966;BME280;4028;43.272;26.932;2024-03-25T03:11:48;97644.03;;;9.48;100.00
7966;BME280;4028;43.272;26.932;2024-03-25T03:14:14;97644.69;;;9.42;100.00
7966;BME280;4028;43.272;26.932;2024-03-25T03:16:39;97641.69;;;9.53;100.00
7966;BME280;4028;43.272;26.932;2024-03-25T03:19:05;97644.06;;;9.40;100.00
7966;BME280;4028;43.272;26.932;2024-03-25T03:21:30;97647.91;;;9.29;100.00
7966;BME280;4028;43.272;26.932;2024-03-25T03:23:56;97653.00;;;9.30;100.00
7966;BME280;4028;43.272;26.932;2024-03-25T03:26:22;97641.03;;;9.20;100.00
7966;BME280;4028;43.272;26.932;2024-03-25T03:28:55;97647.91;;;9.29;100.00
7966;BME280;4028;43.272;26.932;2024-03-25T03:31:21;97617.16;;;9.13;100.00
7966;BME280;4028;43.272;26.932;2024-03-25T03:33:48;97649.31;;;9.08;100.00
7966;BME280;4028;43.272;26.932;2024-03-25T03:36:15;97642.88;;;9.11;100.00
7966;BME280;4028;43.272;26.932;2024-03-25T03:38:41;97642.94;;;8.95;100.00
7966;BME280;4028;43.272;26.932;2024-03-25T03:41:06;97646.53;;;9.02;100.00
7966;BME280;4028;43.272;26.932;2024-03-25T03:43:32;97647.19;;;9.04;100.00
7966;BME280;4028;43.272;26.932;2024-03-25T03:45:57;97650.31;;;9.07;100.00
7966;BME280;4028;43.272;26.932;2024-03-25T03:48:23;97651.63;;;9.11;100.00
7966;BME280;4028;43.272;26.932;2024-03-25T03:50:48;97657.41;;;9.07;100.00
7966;BME280;4028;43.272;26.932;2024-03-25T03:53:13;97652.19;;;8.91;100.00
7966;BME280;4028;43.272;26.932;2024-03-25T03:55:39;97655.03;;;8.73;100.00
7966;BME280;4028;43.272;26.932;2024-03-25T03:58:04;97674.97;;;8.75;100.00
7966;BME280;4028;43.272;26.932;2024-03-25T04:00:33;97682.56;;;8.70;100.00
7966;BME280;4028;43.272;26.932;2024-03-25T04:03:00;97682.25;;;8.41;100.00
7966;BME280;4028;43.272;26.932;2024-03-25T04:05:28;97672.19;;;8.28;100.00
7966;BME280;4028;43.272;26.932;2024-03-25T04:07:54;97670.53;;;8.19;100.00
7966;BME280;4028;43.272;26.932;2024-03-25T04:10:20;97666.44;;;8.24;100.00
7966;BME280;4028;43.272;26.932;2024-03-25T04:12:45;97686.34;;;8.11;100.00
7966;BME280;4028;43.272;26.932;2024-03-25T04:15:11;97688.63;;;7.97;100.00
7966;BME280;4028;43.272;26.932;2024-03-25T04:17:45;97683.34;;;7.97;100.00
7966;BME280;4028;43.272;26.932;2024-03-25T04:20:12;97699.16;;;7.89;100.00
7966;BME280;4028;43.272;26.932;2024-03-25T04:22:45;97695.84;;;7.79;100.00
7966;BME280;4028;43.272;26.932;2024-03-25T04:25:11;97700.09;;;7.64;100.00
7966;BME280;4028;43.272;26.932;2024-03-25T04:27:43;97694.44;;;7.50;100.00
7966;BME280;4028;43.272;26.932;2024-03-25T04:30:10;97701.47;;;7.42;100.00
7966;BME280;4028;43.272;26.932;2024-03-25T04:32:37;97695.22;;;7.35;100.00
7966;BME280;4028;43.272;26.932;2024-03-25T04:35:03;97697.31;;;7.31;100.00
7966;BME280;4028;43.272;26.932;2024-03-25T04:37:29;97679.03;;;7.13;100.00
7966;BME280;4028;43.272;26.932;2024-03-25T04:39:55;97687.44;;;7.25;100.00
7966;BME280;4028;43.272;26.932;2024-03-25T04:42:21;97686.53;;;7.42;100.00
7966;BME280;4028;43.272;26.932;2024-03-25T04:44:47;97675.50;;;7.47;100.00
7966;BME280;4028;43.272;26.932;2024-03-25T04:47:13;97682.09;;;7.51;100.00
7966;BME280;4028;43.272;26.932;2024-03-25T04:49:40;97680.75;;;7.39;100.00
7966;BME280;4028;43.272;26.932;2024-03-25T04:52:06;97696.16;;;7.25;100.00
7966;BME280;4028;43.272;26.932;2024-03-25T04:54:31;97708.78;;;7.14;100.00
7966;BME280;4028;43.272;26.932;2024-03-25T04:56:57;97703.41;;;7.23;100.00
7966;BME280;4028;43.272;26.932;2024-03-25T04:59:22;97712.06;;;7.16;100.00
7966;BME280;4028;43.272;26.932;2024-03-25T05:01:48;97672.19;;;6.94;100.00
7966;BME280;4028;43.272;26.932;2024-03-25T05:04:13;97690.59;;;6.94;100.00
7966;BME280;4028;43.272;26.932;2024-03-25T05:06:39;97709.50;;;6.98;100.00
7966;BME280;4028;43.272;26.932;2024-03-25T05:09:04;97705.03;;;6.90;100.00
7966;BME280;4028;43.272;26.932;2024-03-25T05:11:33;97704.06;;;6.91;100.00
7966;BME280;4028;43.272;26.932;2024-03-25T05:13:58;97696.31;;;6.90;100.00
7966;BME280;4028;43.272;26.932;2024-03-25T05:16:24;97691.50;;;6.77;100.00
7966;BME280;4028;43.272;26.932;2024-03-25T05:18:50;97697.88;;;6.74;100.00
7966;BME280;4028;43.272;26.932;2024-03-25T05:21:15;97703.75;;;6.68;100.00
7966;BME280;4028;43.272;26.932;2024-03-25T05:23:41;97698.31;;;6.70;100.00
7966;BME280;4028;43.272;26.932;2024-03-25T05:26:06;97701.53;;;6.56;100.00
7966;BME280;4028;43.272;26.932;2024-03-25T05:28:32;97696.41;;;6.54;100.00
7966;BME280;4028;43.272;26.932;2024-03-25T05:31:05;97694.13;;;6.51;100.00
7966;BME280;4028;43.272;26.932;2024-03-25T05:33:31;97693.66;;;6.38;100.00
7966;BME280;4028;43.272;26.932;2024-03-25T05:35:58;97699.97;;;6.45;100.00
7966;BME280;4028;43.272;26.932;2024-03-25T05:38:23;97717.47;;;6.36;100.00
7966;BME280;4028;43.272;26.932;2024-03-25T05:40:49;97703.34;;;6.37;100.00
7966;BME280;4028;43.272;26.932;2024-03-25T05:43:14;97704.72;;;6.23;100.00
7966;BME280;4028;43.272;26.932;2024-03-25T05:45:39;97697.03;;;6.04;100.00
7966;BME280;4028;43.272;26.932;2024-03-25T05:48:05;97714.47;;;6.13;100.00
7966;BME280;4028;43.272;26.932;2024-03-25T05:50:31;97715.53;;;6.03;100.00
7966;BME280;4028;43.272;26.932;2024-03-25T05:52:56;97720.75;;;5.85;100.00
7966;BME280;4028;43.272;26.932;2024-03-25T05:55:22;97721.25;;;5.88;100.00
7966;BME280;4028;43.272;26.932;2024-03-25T05:57:47;97728.88;;;5.91;100.00
7966;BME280;4028;43.272;26.932;2024-03-25T06:00:13;97736.97;;;5.98;100.00
7966;BME280;4028;43.272;26.932;2024-03-25T06:02:38;97725.38;;;6.01;100.00
7966;BME280;4028;43.272;26.932;2024-03-25T06:05:04;97742.16;;;6.08;100.00
7966;BME280;4028;43.272;26.932;2024-03-25T06:07:30;97725.53;;;5.99;100.00
7966;BME280;4028;43.272;26.932;2024-03-25T06:09:56;97727.63;;;5.95;100.00
7966;BME280;4028;43.272;26.932;2024-03-25T06:12:21;97741.16;;;5.91;100.00
7966;BME280;4028;43.272;26.932;2024-03-25T06:14:47;97728.19;;;5.89;100.00
7966;BME280;4028;43.272;26.932;2024-03-25T06:17:12;97735.69;;;5.84;100.00
7966;BME280;4028;43.272;26.932;2024-03-25T06:19:38;97734.09;;;5.73;100.00
7966;BME280;4028;43.272;26.932;2024-03-25T06:22:03;97743.91;;;5.71;100.00
7966;BME280;4028;43.272;26.932;2024-03-25T06:24:29;97746.28;;;5.65;100.00
7966;BME280;4028;43.272;26.932;2024-03-25T06:26:54;97756.19;;;5.71;100.00
7966;BME280;4028;43.272;26.932;2024-03-25T06:29:20;97745.16;;;5.67;100.00
7966;BME280;4028;43.272;26.932;2024-03-25T06:31:45;97742.66;;;5.48;100.00
7966;BME280;4028;43.272;26.932;2024-03-25T06:34:29;97716.16;;;5.14;100.00
7966;BME280;4028;43.272;26.932;2024-03-25T06:36:55;97750.81;;;5.45;100.00
7966;BME280;4028;43.272;26.932;2024-03-25T06:39:20;97740.31;;;5.45;100.00
7966;BME280;4028;43.272;26.932;2024-03-25T06:41:46;97755.38;;;5.43;100.00
7966;BME280;4028;43.272;26.932;2024-03-25T06:44:12;97761.47;;;5.43;100.00
7966;BME280;4028;43.272;26.932;2024-03-25T06:46:37;97749.06;;;5.36;100.00
7966;BME280;4028;43.272;26.932;2024-03-25T06:49:03;97748.81;;;5.29;100.00
7966;BME280;4028;43.272;26.932;2024-03-25T06:51:28;97752.81;;;5.33;100.00
7966;BME280;4028;43.272;26.932;2024-03-25T06:53:54;97755.00;;;5.38;100.00
7966;BME280;4028;43.272;26.932;2024-03-25T06:56:20;97760.13;;;5.30;100.00
7966;BME280;4028;43.272;26.932;2024-03-25T06:58:45;97755.16;;;5.27;100.00
7966;BME280;4028;43.272;26.932;2024-03-25T07:01:11;97764.50;;;5.39;100.00
7966;BME280;4028;43.272;26.932;2024-03-25T07:03:39;97769.56;;;5.50;100.00
7966;BME280;4028;43.272;26.932;2024-03-25T07:06:06;97781.00;;;5.59;100.00
7966;BME280;4028;43.272;26.932;2024-03-25T07:08:31;97784.69;;;5.66;100.00
7966;BME280;4028;43.272;26.932;2024-03-25T07:10:57;97742.56;;;5.40;100.00
7966;BME280;4028;43.272;26.932;2024-03-25T07:13:23;97785.59;;;5.74;100.00
7966;BME280;4028;43.272;26.932;2024-03-25T07:15:49;97809.47;;;5.81;100.00
7966;BME280;4028;43.272;26.932;2024-03-25T07:18:15;97809.56;;;5.89;100.00
7966;BME280;4028;43.272;26.932;2024-03-25T07:20:42;97806.13;;;5.89;100.00
7966;BME280;4028;43.272;26.932;2024-03-25T07:23:08;97812.41;;;6.06;100.00
7966;BME280;4028;43.272;26.932;2024-03-25T07:25:33;97822.06;;;6.05;100.00
7966;BME280;4028;43.272;26.932;2024-03-25T07:27:59;97819.00;;;6.10;100.00
7966;BME280;4028;43.272;26.932;2024-03-25T07:30:25;97807.47;;;6.20;100.00
7966;BME280;4028;43.272;26.932;2024-03-25T07:32:57;97811.91;;;6.38;100.00
7966;BME280;4028;43.272;26.932;2024-03-25T07:35:23;97816.53;;;6.44;100.00
7966;BME280;4028;43.272;26.932;2024-03-25T07:37:48;97806.13;;;6.52;100.00
7966;BME280;4028;43.272;26.932;2024-03-25T07:40:17;97797.72;;;6.66;100.00
7966;BME280;4028;43.272;26.932;2024-03-25T07:42:43;97806.91;;;6.70;100.00
7966;BME280;4028;43.272;26.932;2024-03-25T07:45:09;97799.63;;;6.82;100.00
7966;BME280;4028;43.272;26.932;2024-03-25T07:47:34;97799.63;;;6.82;100.00
7966;BME280;4028;43.272;26.932;2024-03-25T07:50:00;97796.47;;;6.78;100.00
7966;BME280;4028;43.272;26.932;2024-03-25T07:52:26;97802.94;;;6.84;100.00
7966;BME280;4028;43.272;26.932;2024-03-25T07:54:52;97811.59;;;6.76;100.00
7966;BME280;4028;43.272;26.932;2024-03-25T07:57:18;97800.00;;;6.69;100.00
7966;BME280;4028;43.272;26.932;2024-03-25T07:59:45;97798.06;;;6.71;100.00
7966;BME280;4028;43.272;26.932;2024-03-25T08:02:10;97795.66;;;6.78;100.00
7966;BME280;4028;43.272;26.932;2024-03-25T08:04:35;97799.72;;;6.72;100.00
7966;BME280;4028;43.272;26.932;2024-03-25T08:07:01;97802.97;;;6.66;100.00
7966;BME280;4028;43.272;26.932;2024-03-25T08:09:28;97807.03;;;6.61;100.00
7966;BME280;4028;43.272;26.932;2024-03-25T08:11:53;97810.72;;;6.50;100.00
7966;BME280;4028;43.272;26.932;2024-03-25T08:14:19;97817.16;;;6.56;100.00
7966;BME280;4028;43.272;26.932;2024-03-25T08:16:44;97809.03;;;6.49;100.00
7966;BME280;4028;43.272;26.932;2024-03-25T08:19:09;97816.88;;;6.41;100.00
7966;BME280;4028;43.272;26.932;2024-03-25T08:21:35;97816.53;;;6.44;100.00
7966;BME280;4028;43.272;26.932;2024-03-25T08:24:00;97821.22;;;6.50;100.00
7966;BME280;4028;43.272;26.932;2024-03-25T08:26:26;97822.25;;;6.57;100.00
7966;BME280;4028;43.272;26.932;2024-03-25T08:28:51;97819.41;;;6.50;100.00
7966;BME280;4028;43.272;26.932;2024-03-25T08:31:17;97820.91;;;6.53;100.00
7966;BME280;4028;43.272;26.932;2024-03-25T08:33:42;97816.03;;;6.40;100.00
7966;BME280;4028;43.272;26.932;2024-03-25T08:36:08;97820.53;;;6.48;100.00
7966;BME280;4028;43.272;26.932;2024-03-25T08:38:34;97828.94;;;6.51;100.00
7966;BME280;4028;43.272;26.932;2024-03-25T08:40:59;97834.25;;;6.60;100.00
7966;BME280;4028;43.272;26.932;2024-03-25T08:43:25;97829.22;;;6.48;100.00
7966;BME280;4028;43.272;26.932;2024-03-25T08:45:50;97839.75;;;6.48;100.00
7966;BME280;4028;43.272;26.932;2024-03-25T08:48:16;97835.53;;;6.38;100.00
7966;BME280;4028;43.272;26.932;2024-03-25T08:50:42;97837.56;;;6.44;100.00
7966;BME280;4028;43.272;26.932;2024-03-25T08:53:08;97843.94;;;6.59;100.00
7966;BME280;4028;43.272;26.932;2024-03-25T08:55:33;97843.66;;;6.62;100.00
7966;BME280;4028;43.272;26.932;2024-03-25T08:57:59;97842.44;;;6.74;100.00
7966;BME280;4028;43.272;26.932;2024-03-25T09:00:25;97827.28;;;6.86;100.00
7966;BME280;4028;43.272;26.932;2024-03-25T09:02:52;97836.94;;;6.86;100.00
7966;BME280;4028;43.272;26.932;2024-03-25T09:05:18;97840.09;;;6.89;100.00
7966;BME280;4028;43.272;26.932;2024-03-25T09:07:49;97855.88;;;6.89;100.00
7966;BME280;4028;43.272;26.932;2024-03-25T09:10:18;97864.28;;;6.75;100.00
7966;BME280;4028;43.272;26.932;2024-03-25T09:13:02;97873.00;;;6.58;100.00
7966;BME280;4028;43.272;26.932;2024-03-25T09:15:28;97856.97;;;6.15;100.00
7966;BME280;4028;43.272;26.932;2024-03-25T09:17:54;97881.84;;;6.21;100.00
7966;BME280;4028;43.272;26.932;2024-03-25T09:20:20;97880.69;;;6.23;100.00
7966;BME280;4028;43.272;26.932;2024-03-25T09:22:46;97893.88;;;6.14;100.00
7966;BME280;4028;43.272;26.932;2024-03-25T09:25:16;97877.59;;;6.10;100.00
7966;BME280;4028;43.272;26.932;2024-03-25T09:27:48;97881.53;;;6.24;100.00
7966;BME280;4028;43.272;26.932;2024-03-25T09:30:15;97887.25;;;6.37;100.00
7966;BME280;4028;43.272;26.932;2024-03-25T09:32:41;97886.44;;;6.55;100.00
7966;BME280;4028;43.272;26.932;2024-03-25T09:35:08;97882.94;;;6.46;100.00
7966;BME280;4028;43.272;26.932;2024-03-25T09:37:34;97888.94;;;6.56;100.00
7966;BME280;4028;43.272;26.932;2024-03-25T09:39:59;97885.31;;;6.75;100.00
7966;BME280;4028;43.272;26.932;2024-03-25T09:42:34;97874.06;;;6.83;100.00
7966;BME280;4028;43.272;26.932;2024-03-25T09:45:01;97886.91;;;7.03;100.00
7966;BME280;4028;43.272;26.932;2024-03-25T09:47:28;97868.19;;;6.89;100.00
7966;BME280;4028;43.272;26.932;2024-03-25T09:49:54;97896.38;;;6.96;100.00
7966;BME280;4028;43.272;26.932;2024-03-25T09:52:20;97878.34;;;6.84;100.00
7966;BME280;4028;43.272;26.932;2024-03-25T09:54:46;97886.69;;;6.97;100.00
7966;BME280;4028;43.272;26.932;2024-03-25T09:57:11;97912.97;;;7.15;100.00
7966;BME280;4028;43.272;26.932;2024-03-25T09:59:37;97911.75;;;7.09;100.00
7966;BME280;4028;43.272;26.932;2024-03-25T10:02:03;97914.03;;;7.04;100.00
7966;BME280;4028;43.272;26.932;2024-03-25T10:04:29;97913.13;;;7.13;100.00
7966;BME280;4028;43.272;26.932;2024-03-25T10:06:55;97910.16;;;7.34;100.00
7966;BME280;4028;43.272;26.932;2024-03-25T10:09:21;97906.59;;;7.69;100.00
7966;BME280;4028;43.272;26.932;2024-03-25T10:11:48;97899.16;;;7.91;100.00
7966;BME280;4028;43.272;26.932;2024-03-25T10:14:15;97883.50;;;7.89;100.00
7966;BME280;4028;43.272;26.932;2024-03-25T10:16:41;97910.38;;;8.01;100.00
7966;BME280;4028;43.272;26.932;2024-03-25T10:19:06;97907.03;;;8.25;100.00
7966;BME280;4028;43.272;26.932;2024-03-25T10:21:33;97903.16;;;8.37;100.00
7966;BME280;4028;43.272;26.932;2024-03-25T10:23:58;97905.72;;;8.29;100.00
7966;BME280;4028;43.272;26.932;2024-03-25T10:26:28;97905.88;;;8.19;100.00
7966;BME280;4028;43.272;26.932;2024-03-25T10:29:06;97907.13;;;8.49;100.00
7966;BME280;4028;43.272;26.932;2024-03-25T10:31:33;97909.34;;;8.78;100.00
7966;BME280;4028;43.272;26.932;2024-03-25T10:33:58;97906.41;;;8.81;100.00
7966;BME280;4028;43.272;26.932;2024-03-25T10:36:25;97913.16;;;8.92;100.00
7966;BME280;4028;43.272;26.932;2024-03-25T10:39:01;97897.00;;;9.28;100.00
7966;BME280;4028;43.272;26.932;2024-03-25T10:41:34;97917.63;;;9.41;100.00
7966;BME280;4028;43.272;26.932;2024-03-25T10:44:03;97921.91;;;9.33;100.00
7966;BME280;4028;43.272;26.932;2024-03-25T10:46:33;97928.50;;;9.13;100.00
7966;BME280;4028;43.272;26.932;2024-03-25T10:49:15;97940.34;;;8.84;100.00
7966;BME280;4028;43.272;26.932;2024-03-25T10:51:43;97934.91;;;8.78;100.00
7966;BME280;4028;43.272;26.932;2024-03-25T10:54:10;97939.97;;;8.55;100.00
7966;BME280;4028;43.272;26.932;2024-03-25T10:56:37;97942.53;;;8.13;100.00
7966;BME280;4028;43.272;26.932;2024-03-25T10:59:04;97945.09;;;8.30;100.00
7966;BME280;4028;43.272;26.932;2024-03-25T11:01:32;97945.53;;;8.52;100.00
7966;BME280;4028;43.272;26.932;2024-03-25T11:03:58;97951.19;;;8.73;100.00
7966;BME280;4028;43.272;26.932;2024-03-25T11:06:24;97957.34;;;8.82;100.00
7966;BME280;4028;43.272;26.932;2024-03-25T11:08:56;97962.56;;;8.66;100.00
7966;BME280;4028;43.272;26.932;2024-03-25T11:11:23;97983.50;;;8.67;100.00
7966;BME280;4028;43.272;26.932;2024-03-25T11:13:48;97980.19;;;8.65;100.00
7966;BME280;4028;43.272;26.932;2024-03-25T11:16:14;97981.50;;;8.61;100.00
7966;BME280;4028;43.272;26.932;2024-03-25T11:18:51;97968.16;;;8.63;100.00
7966;BME280;4028;43.272;26.932;2024-03-25T11:21:24;97980.03;;;8.67;100.00
7966;BME280;4028;43.272;26.932;2024-03-25T11:23:50;97973.47;;;8.79;100.00
7966;BME280;4028;43.272;26.932;2024-03-25T11:28:44;97980.56;;;8.78;100.00
7966;BME280;4028;43.272;26.932;2024-03-25T11:31:10;97989.28;;;8.71;100.00
7966;BME280;4028;43.272;26.932;2024-03-25T11:33:39;97984.97;;;8.62;100.00
7966;BME280;4028;43.272;26.932;2024-03-25T11:36:05;97991.69;;;8.56;100.00
7966;BME280;4028;43.272;26.932;2024-03-25T11:38:30;97996.03;;;8.73;100.00
7966;BME280;4028;43.272;26.932;2024-03-25T11:40:56;97985.53;;;8.81;100.00
7966;BME280;4028;43.272;26.932;2024-03-25T11:43:22;97978.31;;;9.16;100.00
7966;BME280;4028;43.272;26.932;2024-03-25T11:45:48;97986.59;;;9.46;100.00
7966;BME280;4028;43.272;26.932;2024-03-25T11:48:16;97977.34;;;9.25;100.00
7966;BME280;4028;43.272;26.932;2024-03-25T11:50:48;97987.22;;;9.15;100.00
7966;BME280;4028;43.272;26.932;2024-03-25T11:53:14;97982.75;;;9.16;100.00
7966;BME280;4028;43.272;26.932;2024-03-25T11:55:48;97985.59;;;9.06;100.00
7966;BME280;4028;43.272;26.932;2024-03-25T11:58:14;97989.66;;;8.92;100.00
7966;BME280;4028;43.272;26.932;2024-03-25T12:00:46;97987.06;;;9.17;100.00
7966;BME280;4028;43.272;26.932;2024-03-25T12:03:15;97992.03;;;9.93;100.00
7966;BME280;4028;43.272;26.932;2024-03-25T12:05:44;97981.25;;;10.03;100.00
7966;BME280;4028;43.272;26.932;2024-03-25T12:08:10;97988.16;;;10.12;100.00
7966;BME280;4028;43.272;26.932;2024-03-25T12:10:38;97985.88;;;10.09;100.00
7966;BME280;4028;43.272;26.932;2024-03-25T12:13:22;97990.13;;;10.18;100.00
7966;BME280;4028;43.272;26.932;2024-03-25T12:15:49;97983.56;;;9.98;100.00
7966;BME280;4028;43.272;26.932;2024-03-25T12:18:15;97996.09;;;10.12;100.00
7966;BME280;4028;43.272;26.932;2024-03-25T12:20:41;98009.41;;;10.51;100.00
7966;BME280;4028;43.272;26.932;2024-03-25T12:23:07;97982.03;;;10.20;100.00
7966;BME280;4028;43.272;26.932;2024-03-25T12:25:33;98002.06;;;10.06;100.00
7966;BME280;4028;43.272;26.932;2024-03-25T12:27:58;98014.31;;;9.82;100.00
7966;BME280;4028;43.272;26.932;2024-03-25T12:30:24;98009.19;;;9.81;100.00
7966;BME280;4028;43.272;26.932;2024-03-25T12:32:50;98018.88;;;10.13;100.00
7966;BME280;4028;43.272;26.932;2024-03-25T12:35:18;98011.78;;;10.22;100.00
7966;BME280;4028;43.272;26.932;2024-03-25T12:37:46;98017.13;;;9.89;100.00
7966;BME280;4028;43.272;26.932;2024-03-25T12:40:28;98010.19;;;9.72;100.00
7966;BME280;4028;43.272;26.932;2024-03-25T12:42:54;98018.41;;;9.36;100.00
7966;BME280;4028;43.272;26.932;2024-03-25T12:45:23;98017.63;;;9.44;100.00
7966;BME280;4028;43.272;26.932;2024-03-25T12:47:52;98016.97;;;9.50;100.00
7966;BME280;4028;43.272;26.932;2024-03-25T12:50:17;98011.19;;;9.79;100.00
7966;BME280;4028;43.272;26.932;2024-03-25T12:52:44;98016.44;;;10.03;100.00
7966;BME280;4028;43.272;26.932;2024-03-25T12:55:09;97975.78;;;10.29;100.00
7966;BME280;4028;43.272;26.932;2024-03-25T12:57:35;98002.91;;;10.62;100.00
7966;BME280;4028;43.272;26.932;2024-03-25T13:00:01;98005.88;;;10.67;100.00
7966;BME280;4028;43.272;26.932;2024-03-25T13:02:28;98007.66;;;10.27;100.00
7966;BME280;4028;43.272;26.932;2024-03-25T13:04:54;98004.63;;;10.38;100.00
7966;BME280;4028;43.272;26.932;2024-03-25T13:07:20;97994.25;;;10.76;100.00
7966;BME280;4028;43.272;26.932;2024-03-25T13:09:45;98003.44;;;10.88;100.00